createdAt,value
2022-12-25T00:03:09.751Z,86.98
2022-12-25T00:08:30.793Z,86.88
2022-12-25T00:13:51.443Z,86.64
2022-12-25T00:19:11.990Z,86.46
2022-12-25T00:24:32.331Z,86.83
2022-12-25T00:29:52.937Z,87.02
2022-12-25T00:35:14.194Z,87.04
2022-12-25T00:40:35.004Z,87.41
2022-12-25T00:45:57.923Z,87.24
2022-12-25T00:51:18.578Z,87.01
2022-12-25T00:56:40.004Z,87.22
2022-12-25T01:02:21.361Z,86.94
2022-12-25T01:07:42.306Z,86.24
2022-12-25T01:13:02.960Z,86.49
2022-12-25T01:18:24.848Z,86.36
2022-12-25T01:23:45.684Z,86.28
2022-12-25T01:29:06.088Z,86.35
2022-12-25T01:34:26.829Z,86.32
2022-12-25T01:39:47.600Z,86.14
2022-12-25T01:45:26.258Z,86.09
2022-12-25T01:50:55.566Z,86.22
2022-12-25T01:56:16.377Z,86.21
2022-12-25T02:01:37.249Z,86.24
2022-12-25T02:06:58.237Z,86.23
2022-12-25T02:12:28.179Z,86.23
2022-12-25T02:18:07.047Z,86.66
2022-12-25T02:23:33.145Z,86.27
2022-12-25T02:29:02.825Z,86.94
2022-12-25T02:34:44.307Z,86.90
2022-12-25T02:40:17.353Z,86.74
2022-12-25T02:46:04.900Z,86.61
2022-12-25T02:51:47.727Z,86.82
2022-12-25T02:57:29.810Z,86.93
2022-12-25T03:03:11.693Z,86.92
2022-12-25T03:08:40.030Z,86.79
2022-12-25T03:14:26.151Z,86.62
2022-12-25T03:20:05.486Z,86.53
2022-12-25T03:25:44.854Z,86.56
2022-12-25T03:31:27.912Z,87.30
2022-12-25T03:37:28.366Z,87.47
2022-12-25T03:43:15.284Z,87.68
2022-12-25T03:48:58.351Z,87.65
2022-12-25T03:54:41.629Z,87.78
2022-12-25T04:00:20.642Z,87.85
2022-12-25T04:06:00.948Z,87.95
2022-12-25T04:11:39.873Z,88.05
2022-12-25T04:17:18.883Z,88.01
2022-12-25T04:22:57.962Z,88.24
2022-12-25T04:28:37.228Z,87.98
2022-12-25T04:34:16.767Z,87.66
2022-12-25T04:39:38.455Z,87.52
2022-12-25T04:45:00.540Z,87.54
2022-12-25T04:50:21.135Z,87.89
2022-12-25T04:55:42.202Z,87.91
2022-12-25T05:01:04.331Z,88.08
2022-12-25T05:06:26.319Z,87.90
2022-12-25T05:11:46.988Z,88.13
2022-12-25T05:17:08.075Z,88.25
2022-12-25T05:22:28.709Z,88.53
2022-12-25T05:27:53.836Z,88.69
2022-12-25T05:33:15.040Z,88.73
2022-12-25T05:38:36.163Z,88.78
2022-12-25T05:43:56.737Z,88.89
2022-12-25T05:49:17.620Z,88.97
2022-12-25T05:54:38.606Z,89.02
2022-12-25T05:59:59.682Z,88.71
2022-12-25T06:05:22.275Z,89.03
2022-12-25T06:10:43.123Z,89.04
2022-12-25T06:16:09.210Z,89.04
2022-12-25T06:21:29.907Z,89.10
2022-12-25T06:26:50.525Z,89.18
2022-12-25T06:32:11.103Z,89.23
2022-12-25T06:37:31.958Z,89.35
2022-12-25T06:42:52.725Z,89.39
2022-12-25T06:48:13.110Z,89.16
2022-12-25T06:53:40.439Z,89.22
2022-12-25T06:59:09.528Z,89.41
2022-12-25T07:04:38.305Z,89.57
2022-12-25T07:09:58.622Z,89.64
2022-12-25T07:15:19.063Z,89.73
2022-12-25T07:20:39.913Z,89.73
2022-12-25T07:26:01.573Z,89.58
2022-12-25T07:31:22.056Z,89.84
2022-12-25T07:36:44.928Z,89.90
2022-12-25T07:42:05.206Z,89.86
2022-12-25T07:47:25.569Z,89.85
2022-12-25T07:52:46.994Z,89.79
2022-12-25T07:58:07.804Z,89.76
2022-12-25T08:03:28.633Z,90.08
2022-12-25T08:08:49.344Z,90.00
2022-12-25T08:14:10.105Z,90.00
2022-12-25T08:19:30.572Z,90.12
2022-12-25T08:24:51.432Z,90.24
2022-12-25T08:30:12.210Z,90.18
2022-12-25T08:35:36.197Z,90.30
2022-12-25T08:40:57.071Z,90.23
2022-12-25T08:46:17.892Z,90.01
2022-12-25T08:51:39.037Z,90.02
2022-12-25T08:57:02.881Z,90.04
2022-12-25T09:02:24.585Z,90.16
2022-12-25T09:07:45.302Z,90.23
2022-12-25T09:13:05.691Z,90.45
2022-12-25T09:18:27.956Z,90.37
2022-12-25T09:23:48.785Z,90.27
2022-12-25T09:29:09.264Z,90.23
2022-12-25T09:34:30.917Z,90.25
2022-12-25T09:39:51.462Z,89.98
2022-12-25T09:45:30.036Z,90.21
2022-12-25T09:50:54.845Z,90.45
2022-12-25T09:56:25.816Z,90.55
2022-12-25T10:02:25.269Z,90.64
2022-12-25T10:08:21.657Z,90.83
2022-12-25T10:14:07.976Z,90.77
2022-12-25T10:19:46.617Z,91.19
2022-12-25T10:25:16.640Z,90.95
2022-12-25T10:30:40.956Z,90.88
2022-12-25T10:36:01.858Z,90.89
2022-12-25T10:41:41.815Z,90.97
2022-12-25T10:47:04.525Z,91.03
2022-12-25T10:52:27.421Z,90.87
2022-12-25T10:57:47.946Z,90.72
2022-12-25T11:03:28.412Z,90.64
2022-12-25T11:08:58.325Z,90.66
2022-12-25T11:14:21.088Z,90.48
2022-12-25T11:19:52.783Z,90.50
2022-12-25T11:25:15.079Z,90.41
2022-12-25T11:30:37.441Z,90.43
2022-12-25T11:36:02.924Z,90.40
2022-12-25T11:41:31.792Z,90.51
2022-12-25T11:46:55.988Z,90.36
2022-12-25T11:52:18.476Z,90.66
2022-12-25T11:57:41.183Z,90.81
2022-12-25T12:03:06.976Z,90.69
2022-12-25T12:08:28.697Z,90.72
2022-12-25T12:14:12.165Z,90.69
2022-12-25T12:19:34.747Z,90.57
2022-12-25T12:25:01.460Z,90.63
2022-12-25T12:30:32.945Z,90.67
2022-12-25T12:35:53.837Z,90.82
2022-12-25T12:41:16.332Z,90.84
2022-12-25T12:46:37.415Z,90.90
2022-12-25T12:52:24.752Z,91.15
2022-12-25T12:57:45.351Z,91.22
2022-12-25T13:03:23.993Z,91.35
2022-12-25T13:09:15.326Z,91.23
2022-12-25T13:14:37.940Z,91.12
2022-12-25T13:20:00.988Z,91.23
2022-12-25T13:25:22.810Z,91.09
2022-12-25T13:30:43.540Z,91.09
2022-12-25T13:36:05.934Z,90.72
2022-12-25T13:42:05.411Z,90.72
2022-12-25T13:47:34.885Z,91.11
2022-12-25T13:52:57.453Z,91.17
2022-12-25T13:58:33.289Z,91.25
2022-12-25T14:03:54.204Z,91.25
2022-12-25T14:09:16.473Z,91.18
2022-12-25T14:14:37.391Z,91.15
2022-12-25T14:20:06.005Z,91.13
2022-12-25T14:25:35.613Z,91.03
2022-12-25T14:30:56.265Z,91.17
2022-12-25T14:36:16.930Z,91.36
2022-12-25T14:41:42.038Z,91.41
2022-12-25T14:47:23.729Z,91.50
2022-12-25T14:52:45.260Z,91.39
2022-12-25T14:58:08.028Z,91.39
2022-12-25T15:03:38.371Z,91.54
2022-12-25T15:09:04.564Z,91.36
2022-12-25T15:14:26.430Z,91.36
2022-12-25T15:19:46.733Z,91.33
2022-12-25T15:25:14.290Z,91.41
2022-12-25T15:30:39.160Z,91.56
2022-12-25T15:35:59.585Z,91.34
2022-12-25T15:41:43.008Z,91.41
2022-12-25T15:47:04.147Z,91.21
2022-12-25T15:52:24.728Z,91.06
2022-12-25T15:57:47.477Z,91.13
2022-12-25T16:03:08.005Z,91.22
2022-12-25T16:08:28.864Z,91.37
2022-12-25T16:13:49.094Z,91.21
2022-12-25T16:19:09.403Z,91.25
2022-12-25T16:24:29.738Z,91.25
2022-12-25T16:29:50.088Z,91.23
2022-12-25T16:35:11.615Z,91.21
2022-12-25T16:40:32.099Z,91.12
2022-12-25T16:45:52.611Z,91.15
2022-12-25T16:51:19.025Z,91.17
2022-12-25T16:56:39.382Z,91.20
2022-12-25T17:02:00.164Z,91.38
2022-12-25T17:07:21.164Z,91.09
2022-12-25T17:12:42.418Z,91.41
2022-12-25T17:18:02.789Z,91.34
2022-12-25T17:23:23.061Z,91.40
2022-12-25T17:28:45.308Z,91.50
2022-12-25T17:34:06.111Z,91.45
2022-12-25T17:39:26.692Z,91.39
2022-12-25T17:44:47.277Z,91.50
2022-12-25T17:50:08.260Z,91.56
2022-12-25T17:55:34.082Z,91.53
2022-12-25T18:00:54.672Z,91.54
2022-12-25T18:06:17.770Z,91.37
2022-12-25T18:11:40.466Z,91.35
2022-12-25T18:17:00.666Z,91.35
2022-12-25T18:22:22.097Z,91.18
2022-12-25T18:27:42.924Z,91.32
2022-12-25T18:33:03.206Z,91.17
2022-12-25T18:38:23.493Z,91.22
2022-12-25T18:43:53.769Z,91.24
2022-12-25T18:49:16.078Z,91.12
2022-12-25T18:54:36.490Z,91.25
2022-12-25T18:59:57.051Z,91.28
2022-12-25T19:05:17.590Z,91.25
2022-12-25T19:10:39.575Z,91.25
2022-12-25T19:15:59.994Z,91.28
2022-12-25T19:21:20.183Z,91.37
2022-12-25T19:26:40.472Z,91.46
2022-12-25T19:32:01.030Z,91.40
2022-12-25T19:37:21.611Z,91.46
2022-12-25T19:42:42.011Z,91.39
2022-12-25T19:48:02.351Z,91.29
2022-12-25T19:53:24.125Z,91.29
2022-12-25T19:58:45.298Z,91.39
2022-12-25T20:04:08.681Z,91.35
2022-12-25T20:09:30.491Z,91.29
2022-12-25T20:14:51.173Z,91.42
2022-12-25T20:20:11.823Z,91.37
2022-12-25T20:25:32.422Z,91.38
2022-12-25T20:30:52.695Z,91.35
2022-12-25T20:36:14.877Z,91.43
2022-12-25T20:41:35.661Z,91.50
2022-12-25T20:46:59.367Z,91.36
2022-12-25T20:52:20.040Z,91.27
2022-12-25T20:57:40.520Z,91.45
2022-12-25T21:03:01.273Z,91.52
2022-12-25T21:08:24.687Z,91.50
2022-12-25T21:13:46.261Z,91.50
2022-12-25T21:19:06.743Z,91.42
2022-12-25T21:24:27.160Z,91.54
2022-12-25T21:29:47.534Z,91.49
2022-12-25T21:35:08.502Z,91.55
2022-12-25T21:40:29.238Z,91.33
2022-12-25T21:45:49.845Z,91.33
2022-12-25T21:51:35.124Z,91.32
2022-12-25T21:56:55.565Z,91.33
2022-12-25T22:02:16.336Z,91.30
2022-12-25T22:07:37.036Z,91.31
2022-12-25T22:13:16.681Z,91.21
2022-12-25T22:18:55.983Z,91.33
2022-12-25T22:24:16.323Z,91.37
2022-12-25T22:29:37.348Z,91.37
2022-12-25T22:34:58.252Z,91.44
2022-12-25T22:40:20.135Z,91.56
2022-12-25T22:45:40.659Z,91.49
2022-12-25T22:51:03.255Z,91.36
2022-12-25T22:56:23.910Z,91.33
2022-12-25T23:01:45.115Z,91.31
2022-12-25T23:07:06.028Z,91.27
2022-12-25T23:12:45.288Z,91.44
2022-12-25T23:18:24.552Z,91.36
2022-12-25T23:24:03.912Z,91.49
2022-12-25T23:29:36.300Z,91.56
2022-12-25T23:34:57.068Z,91.47
2022-12-25T23:40:17.685Z,91.70
2022-12-25T23:45:39.808Z,91.63
2022-12-25T23:51:06.128Z,91.63
2022-12-25T23:56:26.701Z,91.38
